createdAt,value
2023-05-16T00:00:16.995Z,99.99
2023-05-16T00:01:16.976Z,99.99
2023-05-16T00:02:17.057Z,99.99
2023-05-16T00:03:17.023Z,99.99
2023-05-16T00:04:16.970Z,99.99
2023-05-16T00:05:16.938Z,99.99
2023-05-16T00:06:16.936Z,99.99
2023-05-16T00:07:16.915Z,99.99
2023-05-16T00:08:16.956Z,99.99
2023-05-16T00:09:16.891Z,99.99
2023-05-16T00:10:16.890Z,99.99
2023-05-16T00:11:16.875Z,99.99
2023-05-16T00:12:16.866Z,99.99
2023-05-16T00:13:16.854Z,99.99
2023-05-16T00:14:16.875Z,99.99
2023-05-16T00:15:16.842Z,99.99
2023-05-16T00:16:16.859Z,99.80
2023-05-16T00:17:16.863Z,99.91
2023-05-16T00:18:16.806Z,99.99
2023-05-16T00:19:16.877Z,99.99
2023-05-16T00:20:16.806Z,99.99
2023-05-16T00:21:16.787Z,99.19
2023-05-16T00:22:16.778Z,98.16
2023-05-16T00:23:16.764Z,97.96
2023-05-16T00:24:16.769Z,98.58
2023-05-16T00:25:16.746Z,97.34
2023-05-16T00:26:16.765Z,97.96
2023-05-16T00:27:16.721Z,99.99
2023-05-16T00:28:16.711Z,99.99
2023-05-16T00:29:16.709Z,99.99
2023-05-16T00:30:16.701Z,98.99
2023-05-16T00:31:16.729Z,98.27
2023-05-16T00:32:16.812Z,98.37
2023-05-16T00:33:16.672Z,99.99
2023-05-16T00:34:16.694Z,99.99
2023-05-16T00:35:16.639Z,99.50
2023-05-16T00:36:16.634Z,99.19
2023-05-16T00:37:16.628Z,98.52
2023-05-16T00:38:16.647Z,98.00
2023-05-16T00:39:16.600Z,99.50
2023-05-16T00:40:16.601Z,99.40
2023-05-16T00:41:16.579Z,99.29
2023-05-16T00:42:16.565Z,98.27
2023-05-16T00:43:16.560Z,98.99
2023-05-16T00:44:16.573Z,97.60
2023-05-16T00:45:16.551Z,96.57
2023-05-16T00:46:16.584Z,99.60
2023-05-16T00:47:16.523Z,99.99
2023-05-16T00:48:16.552Z,99.99
2023-05-16T00:49:16.496Z,98.83
2023-05-16T00:50:16.505Z,99.99
2023-05-16T00:51:16.470Z,99.99
2023-05-16T00:52:16.482Z,99.99
2023-05-16T00:53:16.448Z,99.99
2023-05-16T00:54:16.465Z,99.99
2023-05-16T00:55:16.442Z,99.28
2023-05-16T00:56:16.447Z,99.28
2023-05-16T00:57:16.405Z,97.74
2023-05-16T00:58:16.413Z,97.74
2023-05-16T00:59:16.387Z,97.44
2023-05-16T01:00:16.382Z,97.64
2023-05-16T01:01:16.381Z,96.72
2023-05-16T01:02:16.452Z,96.20
2023-05-16T01:03:16.513Z,96.62
2023-05-16T01:04:16.336Z,95.69
2023-05-16T01:05:16.337Z,97.08
2023-05-16T01:06:16.311Z,98.72
2023-05-16T01:07:16.313Z,99.03
2023-05-16T01:08:16.319Z,99.24
2023-05-16T01:09:16.281Z,98.05
2023-05-16T01:10:16.287Z,96.62
2023-05-16T01:11:16.263Z,95.69
2023-05-16T01:12:16.250Z,97.49
2023-05-16T01:13:16.248Z,99.75
2023-05-16T01:14:16.291Z,99.95
2023-05-16T01:15:16.229Z,99.99
2023-05-16T01:16:16.263Z,99.99
2023-05-16T01:17:16.203Z,99.99
2023-05-16T01:18:16.258Z,99.99
2023-05-16T01:19:16.320Z,98.97
2023-05-16T01:20:16.218Z,97.74
2023-05-16T01:21:16.157Z,96.72
2023-05-16T01:22:16.155Z,96.00
2023-05-16T01:23:16.152Z,95.79
2023-05-16T01:24:16.131Z,95.39
2023-05-16T01:25:16.122Z,95.28
2023-05-16T01:26:16.146Z,97.03
2023-05-16T01:27:16.105Z,96.41
2023-05-16T01:28:16.096Z,94.87
2023-05-16T01:29:16.111Z,94.46
2023-05-16T01:30:16.088Z,94.52
2023-05-16T01:31:16.208Z,96.37
2023-05-16T01:32:16.076Z,97.29
2023-05-16T01:33:16.039Z,96.78
2023-05-16T01:34:16.026Z,98.11
2023-05-16T01:35:16.033Z,98.93
2023-05-16T01:36:16.013Z,97.19
2023-05-16T01:37:16.011Z,98.21
2023-05-16T01:38:16.004Z,97.91
2023-05-16T01:39:15.991Z,99.50
2023-05-16T01:40:15.971Z,99.13
2023-05-16T01:41:15.965Z,98.32
2023-05-16T01:42:15.959Z,96.98
2023-05-16T01:43:15.942Z,96.88
2023-05-16T01:44:15.952Z,96.26
2023-05-16T01:45:15.926Z,96.63
2023-05-16T01:46:15.948Z,97.34
2023-05-16T01:47:15.950Z,98.37
2023-05-16T01:48:15.898Z,97.86
2023-05-16T01:49:15.830Z,97.96
2023-05-16T01:50:15.888Z,99.09
2023-05-16T01:51:15.848Z,97.60
2023-05-16T01:52:15.835Z,97.08
2023-05-16T01:53:15.830Z,99.24
2023-05-16T01:54:15.817Z,99.75
2023-05-16T01:55:15.809Z,99.99
2023-05-16T01:56:15.819Z,99.95
2023-05-16T01:57:15.793Z,99.75
2023-05-16T01:58:15.777Z,99.99
2023-05-16T01:59:15.780Z,99.99
2023-05-16T02:00:15.763Z,99.90
2023-05-16T02:01:15.785Z,99.49
2023-05-16T02:02:15.762Z,99.49
2023-05-16T02:03:15.907Z,99.99
2023-05-16T02:04:15.978Z,99.79
2023-05-16T02:05:15.712Z,99.90
2023-05-16T02:06:15.657Z,99.99
2023-05-16T02:07:15.632Z,99.99
2023-05-16T02:08:15.649Z,98.87
2023-05-16T02:09:15.619Z,99.59
2023-05-16T02:10:15.603Z,99.18
2023-05-16T02:11:15.619Z,99.99
2023-05-16T02:12:15.587Z,99.79
2023-05-16T02:13:15.562Z,99.08
2023-05-16T02:14:15.679Z,98.62
2023-05-16T02:15:15.564Z,98.46
2023-05-16T02:16:15.613Z,98.11
2023-05-16T02:17:15.529Z,98.93
2023-05-16T02:18:15.517Z,98.62
2023-05-16T02:19:15.634Z,97.80
2023-05-16T02:20:15.549Z,98.62
2023-05-16T02:21:15.503Z,97.39
2023-05-16T02:22:15.485Z,97.29
2023-05-16T02:23:15.486Z,97.91
2023-05-16T02:24:15.458Z,96.67
2023-05-16T02:25:15.461Z,98.72
2023-05-16T02:26:15.464Z,96.67
2023-05-16T02:27:15.438Z,98.00
2023-05-16T02:28:15.424Z,99.54
2023-05-16T02:29:15.423Z,99.44
2023-05-16T02:30:15.414Z,98.25
2023-05-16T02:31:15.475Z,98.77
2023-05-16T02:32:15.413Z,98.05
2023-05-16T02:33:15.380Z,96.72
2023-05-16T02:34:15.369Z,96.62
2023-05-16T02:35:15.435Z,97.74
2023-05-16T02:36:15.355Z,96.62
2023-05-16T02:37:15.330Z,95.90
2023-05-16T02:38:15.351Z,96.00
2023-05-16T02:39:15.321Z,96.92
2023-05-16T02:40:15.313Z,96.31
2023-05-16T02:41:15.301Z,96.31
2023-05-16T02:42:15.290Z,95.49
2023-05-16T02:43:15.275Z,97.33
2023-05-16T02:44:15.291Z,98.11
2023-05-16T02:45:15.255Z,98.05
2023-05-16T02:46:15.265Z,97.64
2023-05-16T02:47:15.234Z,97.44
2023-05-16T02:48:15.262Z,96.92
2023-05-16T02:49:15.228Z,96.31
2023-05-16T02:50:15.204Z,96.51
2023-05-16T02:51:15.228Z,96.41
2023-05-16T02:52:15.170Z,96.37
2023-05-16T02:53:15.169Z,95.44
2023-05-16T02:54:15.156Z,95.54
2023-05-16T02:56:15.148Z,96.06
2023-05-16T02:57:15.115Z,96.16
2023-05-16T02:58:15.106Z,95.54
2023-05-16T02:59:15.102Z,96.26
2023-05-16T03:00:16.712Z,96.78
2023-05-16T03:01:15.103Z,96.16
2023-05-16T03:02:15.086Z,97.08
2023-05-16T03:03:15.162Z,96.16
2023-05-16T03:04:15.126Z,96.67
2023-05-16T03:05:15.044Z,95.95
2023-05-16T03:06:15.030Z,95.65
2023-05-16T03:07:15.016Z,95.50
2023-05-16T03:08:15.116Z,95.91
2023-05-16T03:09:15.000Z,97.86
2023-05-16T03:10:14.981Z,97.96
2023-05-16T03:11:14.986Z,97.70
2023-05-16T03:12:14.960Z,98.21
2023-05-16T03:13:14.962Z,96.26
2023-05-16T03:14:14.969Z,96.67
2023-05-16T03:15:14.940Z,98.52
2023-05-16T03:16:14.953Z,99.13
2023-05-16T03:17:14.922Z,99.44
2023-05-16T03:18:14.901Z,99.99
2023-05-16T03:19:14.958Z,99.99
2023-05-16T03:20:14.947Z,99.99
2023-05-16T03:21:14.884Z,99.99
2023-05-16T03:22:14.865Z,99.99
2023-05-16T03:23:14.853Z,99.99
2023-05-16T03:24:14.895Z,99.99
2023-05-16T03:25:14.846Z,99.99
2023-05-16T03:26:14.864Z,99.99
2023-05-16T03:27:14.820Z,99.99
2023-05-16T03:28:15.496Z,99.99
2023-05-16T03:29:14.811Z,99.99
2023-05-16T03:30:14.793Z,99.99
2023-05-16T03:31:14.808Z,99.99
2023-05-16T03:32:14.797Z,99.99
2023-05-16T03:33:14.756Z,99.34
2023-05-16T03:34:14.755Z,98.00
2023-05-16T03:35:14.740Z,96.47
2023-05-16T03:36:14.716Z,96.57
2023-05-16T03:37:14.717Z,96.78
2023-05-16T03:38:14.738Z,96.42
2023-05-16T03:39:14.696Z,97.24
2023-05-16T03:40:14.689Z,97.04
2023-05-16T03:41:14.682Z,96.94
2023-05-16T03:42:14.669Z,96.48
2023-05-16T03:43:14.656Z,96.79
2023-05-16T03:44:14.674Z,96.07
2023-05-16T03:45:14.640Z,95.87
2023-05-16T03:46:14.735Z,95.66
2023-05-16T03:47:14.620Z,98.43
2023-05-16T03:48:14.623Z,97.30
2023-05-16T03:49:14.580Z,97.40
2023-05-16T03:50:14.596Z,95.05
2023-05-16T03:51:14.564Z,96.89
2023-05-16T03:52:14.553Z,95.87
2023-05-16T03:53:14.551Z,97.30
2023-05-16T03:54:14.532Z,96.17
2023-05-16T03:55:14.594Z,95.15
2023-05-16T03:56:14.537Z,93.62
2023-05-16T03:57:14.513Z,93.71
2023-05-16T03:58:14.498Z,93.00
2023-05-16T03:59:14.494Z,94.43
2023-05-16T04:00:14.495Z,96.33
2023-05-16T04:01:14.473Z,97.87
2023-05-16T04:02:15.444Z,96.58
2023-05-16T04:03:14.495Z,95.97
2023-05-16T04:04:14.447Z,96.58
2023-05-16T04:05:14.445Z,95.05
2023-05-16T04:06:14.509Z,94.64
2023-05-16T04:07:14.398Z,94.74
2023-05-16T04:08:14.421Z,93.51
2023-05-16T04:09:14.381Z,93.06
2023-05-16T04:10:14.364Z,93.47
2023-05-16T04:11:14.359Z,94.08
2023-05-16T04:12:14.348Z,94.80
2023-05-16T04:13:14.375Z,98.07
2023-05-16T04:14:14.349Z,98.58
2023-05-16T04:15:14.312Z,98.38
2023-05-16T04:16:14.342Z,98.99
2023-05-16T04:17:14.377Z,99.41
2023-05-16T04:18:14.325Z,99.82
2023-05-16T04:19:14.305Z,99.71
2023-05-16T04:20:14.300Z,99.82
2023-05-16T04:21:14.261Z,97.77
2023-05-16T04:22:14.261Z,96.54
2023-05-16T04:23:14.255Z,96.33
2023-05-16T04:24:14.242Z,96.08
2023-05-16T04:25:14.220Z,96.70
2023-05-16T04:26:14.365Z,97.11
2023-05-16T04:27:14.204Z,97.41
2023-05-16T04:28:14.183Z,98.49
2023-05-16T04:29:14.187Z,98.29
2023-05-16T04:30:14.182Z,98.90
2023-05-16T04:31:14.263Z,97.88
2023-05-16T04:32:14.174Z,95.84
2023-05-16T04:33:14.206Z,95.53
2023-05-16T04:34:14.135Z,95.43
2023-05-16T04:35:14.133Z,96.96
2023-05-16T04:36:14.120Z,98.49
2023-05-16T04:37:14.138Z,99.11
2023-05-16T04:38:14.121Z,99.99
2023-05-16T04:39:14.084Z,99.99
2023-05-16T04:40:14.073Z,99.99
2023-05-16T04:41:14.058Z,99.99
2023-05-16T04:42:14.057Z,99.99
2023-05-16T04:43:14.058Z,99.82
2023-05-16T04:44:14.066Z,99.62
2023-05-16T04:45:14.024Z,98.60
2023-05-16T04:46:14.048Z,98.60
2023-05-16T04:47:14.007Z,97.47
2023-05-16T04:48:14.026Z,95.69
2023-05-16T04:49:13.971Z,95.18
2023-05-16T04:50:13.980Z,94.97
2023-05-16T04:51:13.954Z,94.93
2023-05-16T04:52:13.944Z,94.82
2023-05-16T04:53:13.943Z,94.62
2023-05-16T04:54:13.918Z,95.03
2023-05-16T04:55:13.912Z,95.23
2023-05-16T04:56:13.937Z,94.98
2023-05-16T04:57:13.899Z,92.94
2023-05-16T04:58:13.890Z,92.94
2023-05-16T04:59:13.892Z,94.07
2023-05-16T05:00:13.867Z,94.07
2023-05-16T05:01:13.965Z,91.92
2023-05-16T05:02:13.948Z,93.66
2023-05-16T05:03:13.904Z,92.84
2023-05-16T05:04:13.821Z,91.72
2023-05-16T05:05:13.884Z,90.96
2023-05-16T05:06:13.798Z,89.73
2023-05-16T05:07:13.792Z,89.63
2023-05-16T05:08:13.811Z,89.32
2023-05-16T05:09:13.800Z,89.23
2023-05-16T05:10:13.760Z,90.25
2023-05-16T05:11:13.751Z,89.53
2023-05-16T05:12:13.735Z,90.20
2023-05-16T05:13:13.739Z,90.45
2023-05-16T05:14:13.728Z,91.67
2023-05-16T05:15:13.722Z,93.45
2023-05-16T05:16:13.721Z,94.89
2023-05-16T05:17:13.692Z,94.82
2023-05-16T05:18:13.777Z,94.93
2023-05-16T05:19:13.706Z,93.09
2023-05-16T05:20:13.698Z,94.62
2023-05-16T05:21:13.665Z,94.32
2023-05-16T05:22:13.637Z,93.60
2023-05-16T05:23:13.627Z,92.54
2023-05-16T05:24:13.633Z,91.72
2023-05-16T05:25:13.615Z,91.41
2023-05-16T05:26:13.628Z,91.52
2023-05-16T05:27:13.582Z,92.94
2023-05-16T05:28:13.586Z,92.59
2023-05-16T05:29:13.570Z,91.67
2023-05-16T05:30:13.556Z,91.47
2023-05-16T05:31:13.645Z,92.08
2023-05-16T05:32:13.621Z,92.19
2023-05-16T05:33:13.568Z,91.06
2023-05-16T05:34:13.520Z,90.90
2023-05-16T05:35:13.509Z,92.08
2023-05-16T05:36:13.489Z,91.92
2023-05-16T05:37:13.497Z,90.49
2023-05-16T05:38:13.501Z,91.61
2023-05-16T05:39:13.456Z,91.20
2023-05-16T05:40:13.634Z,91.11
2023-05-16T05:41:13.444Z,91.00
2023-05-16T05:42:13.435Z,91.11
2023-05-16T05:43:13.414Z,91.20
2023-05-16T05:44:13.434Z,90.19
2023-05-16T05:45:13.403Z,90.49
2023-05-16T05:46:13.442Z,90.59
2023-05-16T05:47:13.376Z,89.98
2023-05-16T05:48:13.392Z,89.98
2023-05-16T05:49:13.346Z,90.90
2023-05-16T05:50:13.360Z,93.25
2023-05-16T05:51:13.317Z,91.82
2023-05-16T05:52:13.315Z,90.90
2023-05-16T05:53:13.292Z,91.31
2023-05-16T05:54:13.292Z,89.88
2023-05-16T05:55:13.292Z,91.61
2023-05-16T05:56:13.294Z,90.59
2023-05-16T05:57:13.300Z,90.08
2023-05-16T05:58:13.266Z,90.29
2023-05-16T05:59:13.247Z,92.84
2023-05-16T06:00:13.241Z,92.99
2023-05-16T06:01:13.239Z,95.95
2023-05-16T06:02:13.266Z,94.15
2023-05-16T06:03:13.235Z,94.97
2023-05-16T06:04:13.202Z,94.36
2023-05-16T06:05:13.273Z,92.93
2023-05-16T06:06:13.167Z,93.13
2023-05-16T06:07:13.159Z,91.56
2023-05-16T06:08:13.182Z,90.74
2023-05-16T06:09:13.130Z,90.33
2023-05-16T06:10:13.138Z,90.33
2023-05-16T06:11:13.119Z,90.19
2023-05-16T06:12:13.131Z,92.64
2023-05-16T06:13:13.088Z,93.86
2023-05-16T06:14:13.113Z,94.58
2023-05-16T06:15:13.079Z,94.58
2023-05-16T06:16:13.070Z,93.76
2023-05-16T06:17:13.162Z,91.31
2023-05-16T06:18:13.160Z,90.39
2023-05-16T06:19:13.075Z,90.29
2023-05-16T06:20:13.086Z,91.20
2023-05-16T06:21:13.023Z,90.86
2023-05-16T06:22:13.016Z,91.16
2023-05-16T06:23:12.999Z,90.75
2023-05-16T06:24:12.984Z,93.06
2023-05-16T06:25:12.986Z,91.53
2023-05-16T06:26:12.995Z,91.63
2023-05-16T06:27:12.957Z,93.88
2023-05-16T06:28:12.965Z,93.57
2023-05-16T06:29:12.939Z,89.79
2023-05-16T06:30:12.927Z,88.88
2023-05-16T06:31:12.939Z,89.28
2023-05-16T06:32:13.596Z,88.88
2023-05-16T06:33:12.891Z,88.43
2023-05-16T06:34:12.881Z,93.43
2023-05-16T06:35:12.887Z,93.77
2023-05-16T06:36:12.887Z,94.38
2023-05-16T06:37:12.852Z,94.08
2023-05-16T06:38:12.888Z,94.29
2023-05-16T06:39:12.830Z,94.90
2023-05-16T06:40:12.844Z,94.29
2023-05-16T06:41:12.818Z,95.00
2023-05-16T06:42:12.811Z,96.22
2023-05-16T06:43:12.792Z,95.41
2023-05-16T06:44:12.804Z,96.12
2023-05-16T06:45:12.761Z,93.77
2023-05-16T06:46:12.785Z,93.57
2023-05-16T06:47:12.742Z,90.51
2023-05-16T06:48:12.744Z,92.71
2023-05-16T06:49:12.720Z,91.89
2023-05-16T06:50:12.755Z,90.16
2023-05-16T06:51:12.693Z,91.49
2023-05-16T06:52:13.636Z,91.14
2023-05-16T06:53:12.684Z,92.97
2023-05-16T06:54:12.678Z,93.13
2023-05-16T06:55:12.695Z,89.87
2023-05-16T06:56:12.674Z,87.43
2023-05-16T06:57:12.637Z,86.82
2023-05-16T06:58:12.626Z,87.69
2023-05-16T06:59:12.622Z,88.10
2023-05-16T07:00:12.622Z,88.20
2023-05-16T07:01:12.609Z,87.45
2023-05-16T07:02:12.612Z,87.14
2023-05-16T07:03:12.636Z,87.75
2023-05-16T07:04:12.704Z,87.55
2023-05-16T07:05:12.567Z,87.41
2023-05-16T07:06:12.546Z,87.30
2023-05-16T07:07:12.531Z,87.92
2023-05-16T07:08:12.558Z,88.42
2023-05-16T07:09:12.518Z,86.69
2023-05-16T07:10:12.505Z,86.59
2023-05-16T07:11:12.495Z,86.59
2023-05-16T07:12:12.485Z,86.59
2023-05-16T07:13:12.470Z,87.61
2023-05-16T07:14:12.488Z,85.88
2023-05-16T07:15:12.468Z,86.90
2023-05-16T07:16:12.475Z,87.30
2023-05-16T07:17:12.493Z,87.61
2023-05-16T07:18:12.510Z,87.10
2023-05-16T07:19:12.506Z,87.51
2023-05-16T07:20:12.462Z,87.20
2023-05-16T07:21:12.397Z,87.71
2023-05-16T07:22:12.396Z,88.42
2023-05-16T07:23:12.394Z,87.10
2023-05-16T07:24:12.377Z,85.72
2023-05-16T07:25:12.367Z,86.22
2023-05-16T07:26:12.375Z,85.92
2023-05-16T07:27:12.336Z,88.16
2023-05-16T07:28:12.337Z,87.08
2023-05-16T07:29:12.328Z,87.38
2023-05-16T07:30:12.307Z,86.68
2023-05-16T07:31:12.331Z,87.29
2023-05-16T07:32:12.360Z,86.77
2023-05-16T07:33:12.304Z,86.47
2023-05-16T07:34:12.277Z,85.35
2023-05-16T07:35:12.246Z,87.38
2023-05-16T07:36:16.981Z,87.14
2023-05-16T07:37:13.267Z,86.13
2023-05-16T07:38:12.219Z,88.02
2023-05-16T07:39:12.215Z,87.20
2023-05-16T07:40:12.213Z,85.68
2023-05-16T07:41:12.212Z,85.27
2023-05-16T07:42:12.220Z,84.76
2023-05-16T07:43:12.225Z,85.17
2023-05-16T07:44:12.159Z,83.84
2023-05-16T07:45:12.140Z,85.27
2023-05-16T07:46:12.242Z,85.37
2023-05-16T07:47:12.118Z,85.98
2023-05-16T07:48:12.156Z,86.29
2023-05-16T07:49:12.110Z,86.39
2023-05-16T07:50:12.081Z,85.98
2023-05-16T07:51:12.073Z,83.74
2023-05-16T07:52:12.067Z,85.37
2023-05-16T07:53:12.052Z,83.50
2023-05-16T07:54:12.040Z,84.82
2023-05-16T07:55:12.056Z,84.38
2023-05-16T07:56:12.018Z,84.07
2023-05-16T07:57:12.010Z,82.14
2023-05-16T07:58:11.992Z,83.73
2023-05-16T07:59:12.039Z,82.61
2023-05-16T08:00:11.973Z,81.35
2023-05-16T08:01:12.007Z,77.86
2023-05-16T08:02:11.983Z,79.04
2023-05-16T08:03:11.980Z,77.48
2023-05-16T08:04:11.938Z,77.34
2023-05-16T08:05:11.986Z,74.10
2023-05-16T08:06:12.064Z,76.43
2023-05-16T08:07:11.945Z,76.80
2023-05-16T08:08:11.894Z,76.06
2023-05-16T08:09:11.882Z,74.74
2023-05-16T08:10:13.508Z,72.11
2023-05-16T08:11:11.859Z,75.31
2023-05-16T08:12:11.847Z,75.95
2023-05-16T08:13:11.914Z,73.28
2023-05-16T08:14:11.837Z,68.37
2023-05-16T08:15:11.826Z,70.42
2023-05-16T08:16:11.906Z,71.26
2023-05-16T08:17:12.056Z,69.24
2023-05-16T08:18:12.748Z,72.65
2023-05-16T08:19:11.841Z,72.41
2023-05-16T08:20:11.786Z,74.87
2023-05-16T08:21:11.770Z,70.86
2023-05-16T08:22:11.755Z,70.09
2023-05-16T08:23:11.747Z,71.87
2023-05-16T08:24:11.738Z,68.21
2023-05-16T08:25:11.751Z,70.26
2023-05-16T08:26:11.761Z,68.61
2023-05-16T08:27:11.741Z,63.30
2023-05-16T08:28:11.698Z,66.19
2023-05-16T08:29:11.684Z,65.28
2023-05-16T08:30:11.670Z,69.99
2023-05-16T08:31:11.724Z,67.23
2023-05-16T08:32:11.651Z,66.90
2023-05-16T08:33:11.669Z,67.10
2023-05-16T08:34:11.626Z,65.96
2023-05-16T08:35:11.642Z,66.47
2023-05-16T08:36:11.614Z,67.97
2023-05-16T08:37:11.634Z,69.25
2023-05-16T08:38:11.587Z,67.51
2023-05-16T08:39:11.597Z,65.97
2023-05-16T08:40:11.606Z,65.90
2023-05-16T08:41:11.562Z,63.17
2023-05-16T08:42:11.561Z,66.02
2023-05-16T08:43:11.605Z,68.21
2023-05-16T08:44:11.525Z,66.97
2023-05-16T08:45:11.528Z,65.02
2023-05-16T08:46:11.517Z,64.28
2023-05-16T08:47:11.570Z,65.18
2023-05-16T08:48:11.531Z,68.57
2023-05-16T08:49:11.515Z,67.09
2023-05-16T08:50:11.464Z,68.63
2023-05-16T08:51:11.445Z,69.85
2023-05-16T08:52:11.444Z,69.65
2023-05-16T08:53:11.423Z,71.03
2023-05-16T08:54:11.426Z,69.98
2023-05-16T08:55:12.011Z,70.06
2023-05-16T08:56:11.406Z,69.65
2023-05-16T08:57:12.277Z,66.96
2023-05-16T08:58:11.386Z,68.71
2023-05-16T08:59:11.367Z,67.80
2023-05-16T09:00:11.381Z,66.78
2023-05-16T09:01:11.403Z,68.00
2023-05-16T09:02:11.349Z,67.29
2023-05-16T09:03:11.372Z,68.30
2023-05-16T09:04:11.353Z,67.49
2023-05-16T09:05:11.328Z,69.04
2023-05-16T09:06:11.298Z,66.29
2023-05-16T09:07:11.307Z,65.55
2023-05-16T09:08:11.286Z,69.15
2023-05-16T09:09:11.260Z,66.22
2023-05-16T09:10:11.292Z,66.30
2023-05-16T09:11:11.235Z,65.36
2023-05-16T09:12:11.240Z,65.93
2023-05-16T09:13:11.252Z,64.46
2023-05-16T09:14:11.214Z,64.63
2023-05-16T09:15:11.324Z,63.39
2023-05-16T09:16:11.197Z,63.17
2023-05-16T09:17:12.635Z,60.69
2023-05-16T09:18:11.214Z,62.44
2023-05-16T09:19:11.247Z,61.04
2023-05-16T09:20:11.209Z,60.11
2023-05-16T09:21:11.145Z,60.08
2023-05-16T09:22:11.163Z,59.25
2023-05-16T09:23:11.128Z,59.06
2023-05-16T09:24:11.119Z,56.74
2023-05-16T09:25:29.472Z,54.59
2023-05-16T09:26:12.101Z,52.79
2023-05-16T09:27:11.085Z,53.22
2023-05-16T09:28:11.844Z,56.14
2023-05-16T09:29:11.069Z,55.81
2023-05-16T09:30:11.057Z,49.27
2023-05-16T09:31:11.136Z,50.21
2023-05-16T09:32:11.034Z,54.40
2023-05-16T09:33:11.061Z,51.51
2023-05-16T09:34:11.018Z,58.42
2023-05-16T09:35:11.006Z,59.42
2023-05-16T09:36:10.998Z,56.21
2023-05-16T09:37:11.012Z,54.72
2023-05-16T09:38:10.972Z,59.62
2023-05-16T09:39:10.964Z,59.36
2023-05-16T09:40:10.950Z,51.01
2023-05-16T09:41:10.958Z,54.10
2023-05-16T09:42:10.931Z,55.44
2023-05-16T09:43:10.949Z,51.92
2023-05-16T09:44:10.907Z,49.16
2023-05-16T09:45:10.906Z,51.29
2023-05-16T09:46:10.929Z,55.27
2023-05-16T09:47:10.870Z,55.35
2023-05-16T09:48:10.891Z,52.29
2023-05-16T09:49:10.932Z,49.74
2023-05-16T09:50:10.847Z,50.00
2023-05-16T09:51:10.836Z,49.57
2023-05-16T09:52:10.831Z,49.27
2023-05-16T09:53:10.809Z,49.87
2023-05-16T09:54:10.801Z,50.35
2023-05-16T09:55:10.887Z,47.58
2023-05-16T09:56:10.783Z,48.16
2023-05-16T09:57:10.779Z,50.67
2023-05-16T09:58:10.770Z,50.35
2023-05-16T09:59:10.758Z,49.03
2023-05-16T10:00:10.738Z,46.81
2023-05-16T10:01:10.757Z,49.38
2023-05-16T10:02:10.770Z,49.46
2023-05-16T10:03:10.824Z,49.33
2023-05-16T10:04:10.813Z,46.95
2023-05-16T10:05:10.682Z,47.86
2023-05-16T10:06:10.675Z,47.94
2023-05-16T10:07:10.693Z,44.48
2023-05-16T10:08:10.654Z,48.55
2023-05-16T10:09:10.646Z,49.65
2023-05-16T10:10:10.643Z,48.43
2023-05-16T10:11:10.633Z,47.81
2023-05-16T10:12:10.619Z,48.33
2023-05-16T10:13:10.630Z,48.33
2023-05-16T10:14:10.595Z,47.71
2023-05-16T10:15:10.586Z,46.89
2023-05-16T10:16:10.606Z,46.35
2023-05-16T10:17:10.592Z,45.75
2023-05-16T10:18:10.579Z,47.86
2023-05-16T10:19:10.713Z,46.08
2023-05-16T10:20:10.543Z,47.64
2023-05-16T10:21:11.790Z,47.37
2023-05-16T10:22:10.513Z,47.59
2023-05-16T10:23:10.504Z,46.38
2023-05-16T10:24:10.494Z,49.67
2023-05-16T10:25:10.555Z,52.49
2023-05-16T10:26:10.480Z,52.69
2023-05-16T10:27:10.465Z,53.32
2023-05-16T10:28:10.462Z,52.80
2023-05-16T10:29:10.441Z,52.99
2023-05-16T10:30:10.434Z,52.67
2023-05-16T10:31:10.457Z,53.99
2023-05-16T10:32:10.474Z,52.27
2023-05-16T10:33:10.443Z,52.02
2023-05-16T10:34:10.387Z,47.24
2023-05-16T10:35:10.376Z,49.73
2023-05-16T10:36:10.369Z,49.83
2023-05-16T10:37:11.330Z,47.75
2023-05-16T10:38:10.354Z,48.97
2023-05-16T10:39:10.336Z,48.58
2023-05-16T10:40:10.324Z,46.50
2023-05-16T10:41:10.342Z,51.32
2023-05-16T10:42:10.314Z,52.00
2023-05-16T10:43:10.338Z,51.15
2023-05-16T10:44:10.278Z,51.50
2023-05-16T10:45:10.272Z,49.15
2023-05-16T10:46:10.346Z,49.10
2023-05-16T10:47:10.250Z,49.06
2023-05-16T10:48:10.377Z,45.18
2023-05-16T10:49:10.255Z,47.32
2023-05-16T10:50:10.218Z,47.80
2023-05-16T10:51:10.214Z,48.27
2023-05-16T10:52:10.222Z,46.68
2023-05-16T10:53:10.189Z,44.01
2023-05-16T10:54:10.182Z,45.10
2023-05-16T10:55:10.267Z,48.29
2023-05-16T10:56:10.176Z,50.57
2023-05-16T10:57:10.254Z,50.69
2023-05-16T10:58:10.145Z,52.26
2023-05-16T10:59:10.145Z,52.94
2023-05-16T11:00:10.114Z,52.44
2023-05-16T11:01:10.223Z,52.69
2023-05-16T11:02:10.108Z,54.50
2023-05-16T11:03:10.809Z,54.30
2023-05-16T11:04:10.070Z,55.31
2023-05-16T11:05:10.066Z,55.54
2023-05-16T11:06:10.058Z,56.44
2023-05-16T11:07:10.086Z,57.48
2023-05-16T11:08:10.033Z,56.07
2023-05-16T11:09:10.261Z,57.45
2023-05-16T11:10:10.020Z,57.95
2023-05-16T11:11:10.003Z,55.74
2023-05-16T11:12:09.993Z,56.62
2023-05-16T11:13:10.020Z,58.00
2023-05-16T11:14:09.972Z,57.02
2023-05-16T11:15:09.960Z,54.43
2023-05-16T11:16:09.960Z,57.35
2023-05-16T11:17:10.045Z,58.45
2023-05-16T11:18:10.037Z,59.03
2023-05-16T11:19:09.998Z,56.62
2023-05-16T11:20:09.922Z,55.13
2023-05-16T11:21:09.940Z,57.45
2023-05-16T11:22:09.910Z,56.14
2023-05-16T11:23:09.889Z,56.84
2023-05-16T11:24:09.882Z,56.84
2023-05-16T11:25:09.939Z,57.04
2023-05-16T11:26:09.858Z,55.63
2023-05-16T11:27:09.841Z,55.74
2023-05-16T11:28:09.846Z,56.34
2023-05-16T11:29:09.828Z,56.11
2023-05-16T11:30:09.816Z,58.42
2023-05-16T11:31:09.847Z,57.62
2023-05-16T11:32:09.795Z,54.60
2023-05-16T11:33:09.851Z,55.94
2023-05-16T11:34:09.785Z,56.71
2023-05-16T11:35:11.016Z,56.24
2023-05-16T11:37:09.761Z,54.73
2023-05-16T11:38:09.726Z,56.87
2023-05-16T11:39:09.789Z,53.85
2023-05-16T11:40:09.733Z,56.97
2023-05-16T11:41:09.700Z,58.28
2023-05-16T11:42:09.687Z,57.37
2023-05-16T11:43:09.723Z,55.36
2023-05-16T11:44:09.666Z,53.85
2023-05-16T11:45:09.679Z,55.06
2023-05-16T11:46:10.672Z,55.76
2023-05-16T11:47:09.668Z,56.70
2023-05-16T11:48:09.705Z,56.40
2023-05-16T11:49:09.664Z,55.19
2023-05-16T11:50:09.603Z,55.91
2023-05-16T11:51:09.597Z,56.52
2023-05-16T11:52:09.632Z,55.91
2023-05-16T11:53:09.584Z,55.71
2023-05-16T11:54:09.557Z,57.63
2023-05-16T11:55:09.586Z,58.54
2023-05-16T11:56:09.544Z,58.91
2023-05-16T11:57:09.541Z,58.01
2023-05-16T11:58:09.675Z,56.20
2023-05-16T11:59:09.515Z,59.01
2023-05-16T12:00:09.494Z,56.32
2023-05-16T12:01:09.526Z,55.51
2023-05-16T12:02:09.482Z,56.15
2023-05-16T12:03:09.521Z,56.24
2023-05-16T12:04:09.643Z,57.05
2023-05-16T12:05:09.497Z,57.76
2023-05-16T12:06:09.441Z,57.05
2023-05-16T12:07:09.451Z,57.86
2023-05-16T12:08:09.419Z,58.29
2023-05-16T12:09:09.415Z,59.07
2023-05-16T12:10:09.391Z,61.89
2023-05-16T12:11:09.430Z,57.08
2023-05-16T12:12:09.375Z,56.37
2023-05-16T12:13:09.410Z,55.66
2023-05-16T12:14:09.356Z,55.97
2023-05-16T12:15:09.362Z,56.07
2023-05-16T12:16:09.379Z,56.07
2023-05-16T12:17:09.441Z,55.87
2023-05-16T12:18:09.370Z,56.07
2023-05-16T12:19:09.364Z,56.98
2023-05-16T12:20:09.290Z,56.27
2023-05-16T12:21:09.297Z,56.77
2023-05-16T12:22:09.277Z,57.78
2023-05-16T12:23:09.268Z,59.27
2023-05-16T12:24:09.256Z,58.26
2023-05-16T12:25:09.986Z,57.65
2023-05-16T12:26:09.244Z,56.27
2023-05-16T12:27:09.226Z,56.27
2023-05-16T12:28:09.464Z,57.38
2023-05-16T12:29:09.213Z,56.48
2023-05-16T12:30:09.191Z,56.77
2023-05-16T12:31:15.737Z,56.48
2023-05-16T12:32:10.213Z,57.48
2023-05-16T12:33:09.286Z,57.98
2023-05-16T12:34:09.157Z,57.58
2023-05-16T12:35:09.152Z,58.09
2023-05-16T12:36:09.133Z,57.98
2023-05-16T12:37:09.149Z,57.48
2023-05-16T12:38:09.126Z,58.39
2023-05-16T12:39:09.499Z,57.68
2023-05-16T12:40:09.092Z,58.59
2023-05-16T12:41:09.085Z,59.09
2023-05-16T12:42:09.079Z,60.81
2023-05-16T12:43:09.106Z,60.61
2023-05-16T12:44:09.045Z,59.80
2023-05-16T12:45:09.049Z,59.93
2023-05-16T12:46:09.051Z,61.24
2023-05-16T12:47:09.028Z,62.05
2023-05-16T12:48:09.074Z,61.88
2023-05-16T12:49:09.047Z,62.08
2023-05-16T12:50:08.998Z,62.68
2023-05-16T12:51:08.986Z,63.79
2023-05-16T12:52:08.961Z,63.39
2023-05-16T12:53:09.191Z,63.49
2023-05-16T12:55:09.002Z,63.39